createdAt,value
2019-03-12T00:00:06.214Z,2.87
2019-03-12T00:02:05.821Z,2.88
2019-03-12T00:04:06.042Z,2.92
2019-03-12T00:06:05.635Z,2.87
2019-03-12T00:08:05.651Z,2.87
2019-03-12T00:10:05.662Z,2.94
2019-03-12T00:12:05.670Z,2.79
2019-03-12T00:14:05.718Z,2.95
2019-03-12T00:16:05.645Z,2.86
2019-03-12T00:18:05.604Z,2.95
2019-03-12T00:20:05.817Z,2.99
2019-03-12T00:22:05.837Z,2.95
2019-03-12T00:24:05.638Z,2.97
2019-03-12T00:26:05.698Z,2.84
2019-03-12T00:28:05.767Z,2.83
2019-03-12T00:30:05.656Z,2.81
2019-03-12T00:32:05.802Z,2.79
2019-03-12T00:34:05.612Z,2.95
2019-03-12T00:36:05.803Z,2.82
2019-03-12T00:38:05.727Z,2.91
2019-03-12T00:40:05.480Z,2.94
2019-03-12T00:42:05.649Z,2.79
2019-03-12T00:44:05.754Z,2.79
2019-03-12T00:46:05.814Z,2.81
2019-03-12T00:48:05.782Z,2.76
2019-03-12T00:50:05.898Z,2.75
2019-03-12T00:52:05.800Z,2.68
2019-03-12T00:54:05.823Z,2.64
2019-03-12T00:56:05.645Z,2.66
2019-03-12T00:58:05.951Z,2.63
2019-03-12T01:00:05.953Z,2.51
2019-03-12T01:02:05.904Z,2.66
2019-03-12T01:04:05.657Z,2.63
2019-03-12T01:06:05.701Z,2.51
2019-03-12T01:08:05.717Z,2.39
2019-03-12T01:10:05.681Z,2.54
2019-03-12T01:12:05.683Z,2.52
2019-03-12T01:14:05.954Z,2.41
2019-03-12T01:16:05.840Z,2.41
2019-03-12T01:18:05.718Z,2.35
2019-03-12T01:20:05.794Z,2.52
2019-03-12T01:22:05.733Z,2.47
2019-03-12T01:24:05.669Z,2.57
2019-03-12T01:26:05.754Z,2.66
2019-03-12T01:28:06.013Z,2.65
2019-03-12T01:30:05.711Z,2.58
2019-03-12T01:32:05.733Z,2.79
2019-03-12T01:34:05.680Z,2.76
2019-03-12T01:36:05.753Z,2.77
2019-03-12T01:38:05.867Z,2.91
2019-03-12T01:40:05.887Z,2.82
2019-03-12T01:42:05.898Z,2.71
2019-03-12T01:44:06.002Z,2.71
2019-03-12T01:46:05.738Z,2.70
2019-03-12T01:48:05.924Z,2.59
2019-03-12T01:50:06.042Z,2.57
2019-03-12T01:52:05.742Z,2.61
2019-03-12T01:54:05.951Z,2.64
2019-03-12T01:56:05.897Z,2.58
2019-03-12T01:58:05.697Z,2.43
2019-03-12T02:00:05.888Z,2.51
2019-03-12T02:02:06.112Z,2.48
2019-03-12T02:04:06.217Z,2.45
2019-03-12T02:06:05.603Z,2.49
2019-03-12T02:08:05.836Z,2.44
2019-03-12T02:10:05.859Z,2.38
2019-03-12T02:12:05.862Z,2.27
2019-03-12T02:14:05.688Z,2.24
2019-03-12T02:16:05.805Z,2.40
2019-03-12T02:18:05.894Z,2.25
2019-03-12T02:20:06.009Z,2.25
2019-03-12T02:22:05.814Z,2.29
2019-03-12T02:24:05.826Z,2.25
2019-03-12T02:26:05.843Z,2.14
2019-03-12T02:28:05.866Z,2.19
2019-03-12T02:30:05.907Z,2.13
2019-03-12T02:32:05.942Z,2.09
2019-03-12T02:34:06.095Z,2.15
2019-03-12T02:36:05.891Z,2.13
2019-03-12T02:38:05.844Z,2.09
2019-03-12T02:40:05.921Z,2.05
2019-03-12T02:42:05.933Z,1.96
2019-03-12T02:44:05.769Z,1.91
2019-03-12T02:46:05.959Z,1.87
2019-03-12T02:48:05.966Z,1.80
2019-03-12T02:50:05.638Z,1.65
2019-03-12T02:52:05.892Z,1.56
2019-03-12T02:54:05.897Z,1.47
2019-03-12T02:56:06.217Z,1.48
2019-03-12T02:58:05.931Z,1.40
2019-03-12T03:00:05.627Z,1.57
2019-03-12T03:02:05.939Z,1.56
2019-03-12T03:04:05.914Z,1.51
2019-03-12T03:06:05.755Z,1.53
2019-03-12T03:08:05.924Z,1.54
2019-03-12T03:10:05.804Z,1.48
2019-03-12T03:12:05.868Z,1.51
2019-03-12T03:14:05.919Z,1.44
2019-03-12T03:16:05.861Z,1.30
2019-03-12T03:18:05.941Z,1.24
2019-03-12T03:20:05.940Z,1.12
2019-03-12T03:22:05.895Z,1.18
2019-03-12T03:24:05.768Z,1.00
2019-03-12T03:26:05.980Z,0.97
2019-03-12T03:28:05.925Z,0.98
2019-03-12T03:30:05.871Z,1.07
2019-03-12T03:32:05.839Z,1.07
2019-03-12T03:34:05.926Z,1.15
2019-03-12T03:36:05.938Z,1.15
2019-03-12T03:38:05.547Z,1.13
2019-03-12T03:40:06.068Z,1.26
2019-03-12T03:42:05.968Z,1.25
2019-03-12T03:44:05.981Z,1.14
2019-03-12T03:46:06.001Z,1.16
2019-03-12T03:48:05.956Z,1.04
2019-03-12T03:50:05.959Z,1.01
2019-03-12T03:52:05.875Z,0.90
2019-03-12T03:54:06.037Z,0.90
2019-03-12T03:56:06.052Z,0.86
2019-03-12T03:58:05.965Z,0.84
2019-03-12T04:00:05.979Z,0.90
2019-03-12T04:02:05.837Z,0.93
2019-03-12T04:04:05.893Z,1.06
2019-03-12T04:06:05.906Z,1.08
2019-03-12T04:08:06.022Z,1.23
2019-03-12T04:10:05.835Z,1.17
2019-03-12T04:12:05.954Z,1.10
2019-03-12T04:14:05.947Z,1.19
2019-03-12T04:16:05.893Z,1.34
2019-03-12T04:18:06.076Z,1.39
2019-03-12T04:20:06.397Z,1.30
2019-03-12T04:22:05.991Z,1.41
2019-03-12T04:24:06.008Z,1.40
2019-03-12T04:26:06.020Z,1.42
2019-03-12T04:28:06.037Z,1.31
2019-03-12T04:30:05.800Z,1.41
2019-03-12T04:32:06.054Z,1.41
2019-03-12T04:34:06.200Z,1.31
2019-03-12T04:36:05.883Z,1.36
2019-03-12T04:38:07.230Z,1.40
2019-03-12T04:40:05.816Z,1.34
2019-03-12T04:42:06.117Z,1.24
2019-03-12T04:44:05.880Z,1.24
2019-03-12T04:46:06.138Z,1.13
2019-03-12T04:48:05.887Z,1.15
2019-03-12T04:50:05.958Z,1.13
2019-03-12T04:52:05.970Z,1.21
2019-03-12T04:54:05.839Z,1.07
2019-03-12T04:56:05.889Z,1.15
2019-03-12T04:58:06.102Z,1.11
2019-03-12T05:00:05.870Z,0.99
2019-03-12T05:02:05.918Z,0.96
2019-03-12T05:04:05.838Z,1.02
2019-03-12T05:06:06.047Z,0.95
2019-03-12T05:08:06.054Z,0.97
2019-03-12T05:10:05.643Z,0.98
2019-03-12T05:12:05.983Z,0.79
2019-03-12T05:14:05.984Z,0.84
2019-03-12T05:16:06.118Z,0.74
2019-03-12T05:18:06.115Z,0.75
2019-03-12T05:20:06.128Z,0.72
2019-03-12T05:22:05.932Z,0.75
2019-03-12T05:24:05.913Z,0.69
2019-03-12T05:26:05.894Z,0.64
2019-03-12T05:28:05.996Z,0.70
2019-03-12T05:30:06.031Z,0.57
2019-03-12T05:32:05.990Z,0.47
2019-03-12T05:34:06.008Z,0.41
2019-03-12T05:36:06.022Z,0.32
2019-03-12T05:38:06.127Z,0.28
2019-03-12T05:40:05.948Z,0.27
2019-03-12T05:42:05.881Z,0.24
2019-03-12T05:44:06.167Z,0.20
2019-03-12T05:46:05.872Z,0.26
2019-03-12T05:48:05.926Z,0.26
2019-03-12T05:50:05.993Z,0.36
2019-03-12T05:52:06.105Z,0.37
2019-03-12T05:54:05.968Z,0.38
2019-03-12T05:56:06.053Z,0.38
2019-03-12T05:58:06.161Z,0.55
2019-03-12T06:00:05.943Z,0.51
2019-03-12T06:02:06.176Z,0.52
2019-03-12T06:04:05.970Z,0.44
2019-03-12T06:06:06.068Z,0.56
2019-03-12T06:08:06.023Z,0.58
2019-03-12T06:10:06.118Z,0.53
2019-03-12T06:12:06.113Z,0.58
2019-03-12T06:14:05.928Z,0.61
2019-03-12T06:16:06.080Z,0.67
2019-03-12T06:18:06.155Z,0.53
2019-03-12T06:20:06.210Z,0.53
2019-03-12T06:22:06.082Z,0.68
2019-03-12T06:24:05.942Z,0.72
2019-03-12T06:26:06.002Z,0.83
2019-03-12T06:28:06.113Z,0.66
2019-03-12T06:30:06.146Z,0.77
2019-03-12T06:32:06.437Z,0.76
2019-03-12T06:34:06.292Z,0.87
2019-03-12T06:36:06.461Z,0.85
2019-03-12T06:38:06.071Z,0.86
2019-03-12T06:40:06.087Z,0.81
2019-03-12T06:42:07.942Z,0.91
2019-03-12T06:44:05.985Z,0.97
2019-03-12T06:46:06.109Z,0.92
2019-03-12T06:48:06.173Z,1.00
2019-03-12T06:50:06.037Z,0.97
2019-03-12T06:52:06.383Z,1.06
2019-03-12T06:54:05.959Z,1.22
2019-03-12T06:56:06.167Z,1.45
2019-03-12T06:58:06.053Z,1.47
2019-03-12T07:00:06.094Z,1.60
2019-03-12T07:02:06.208Z,1.84
2019-03-12T07:04:06.365Z,1.94
2019-03-12T07:06:05.791Z,1.98
2019-03-12T07:08:06.437Z,2.13
2019-03-12T07:10:06.051Z,2.36
2019-03-12T07:12:06.672Z,2.43
2019-03-12T07:14:06.175Z,2.74
2019-03-12T07:16:06.394Z,2.76
2019-03-12T07:18:06.254Z,2.99
2019-03-12T07:20:06.213Z,2.98
2019-03-12T07:22:05.908Z,2.93
2019-03-12T07:24:06.429Z,2.94
2019-03-12T07:26:06.252Z,3.17
2019-03-12T07:28:06.154Z,3.19
2019-03-12T07:30:06.063Z,3.25
2019-03-12T07:32:05.924Z,3.54
2019-03-12T07:34:06.082Z,3.75
2019-03-12T07:36:06.214Z,3.95
2019-03-12T07:38:06.109Z,3.98
2019-03-12T07:40:06.216Z,3.94
2019-03-12T07:42:06.232Z,3.98
2019-03-12T07:44:06.167Z,3.68
2019-03-12T07:46:06.137Z,3.53
2019-03-12T07:48:05.948Z,3.66
2019-03-12T07:50:06.275Z,3.73
2019-03-12T07:52:08.614Z,3.83
2019-03-12T07:54:06.207Z,3.83
2019-03-12T07:56:06.113Z,3.69
2019-03-12T07:58:06.003Z,4.02
2019-03-12T08:00:06.014Z,4.26
2019-03-12T08:02:06.026Z,4.30
2019-03-12T08:04:06.152Z,4.38
2019-03-12T08:06:06.069Z,4.09
2019-03-12T08:08:06.176Z,3.97
2019-03-12T08:10:06.190Z,3.96
2019-03-12T08:12:06.411Z,3.91
2019-03-12T08:14:06.086Z,3.91
2019-03-12T08:16:06.132Z,4.00
2019-03-12T08:18:06.449Z,4.29
2019-03-12T08:20:06.253Z,4.20
2019-03-12T08:22:06.139Z,4.35
2019-03-12T08:24:05.964Z,4.49
2019-03-12T08:26:06.047Z,4.59
2019-03-12T08:28:06.187Z,4.55
2019-03-12T08:30:06.416Z,4.80
2019-03-12T08:32:06.414Z,4.88
2019-03-12T08:34:06.236Z,5.11
2019-03-12T08:36:06.241Z,5.38
2019-03-12T08:38:06.155Z,5.54
2019-03-12T08:40:06.272Z,5.40
2019-03-12T08:42:06.477Z,5.52
2019-03-12T08:44:06.171Z,5.72
2019-03-12T08:46:06.190Z,5.91
2019-03-12T08:48:06.317Z,5.99
2019-03-12T08:50:06.129Z,6.11
2019-03-12T08:52:06.152Z,6.30
2019-03-12T08:54:06.038Z,6.31
2019-03-12T08:56:06.351Z,6.18
2019-03-12T08:58:06.259Z,6.09
2019-03-12T09:00:06.184Z,6.09
2019-03-12T09:02:06.391Z,5.96
2019-03-12T09:04:06.321Z,5.91
2019-03-12T09:06:06.347Z,5.78
2019-03-12T09:08:06.327Z,5.80
2019-03-12T09:10:06.083Z,5.97
2019-03-12T09:12:06.551Z,5.95
2019-03-12T09:14:06.252Z,5.86
2019-03-12T09:16:06.233Z,5.91
2019-03-12T09:18:06.382Z,5.96
2019-03-12T09:20:06.175Z,5.97
2019-03-12T09:22:06.294Z,5.78
2019-03-12T09:24:06.414Z,5.78
2019-03-12T09:26:06.458Z,5.62
2019-03-12T09:28:06.228Z,5.83
2019-03-12T09:30:06.523Z,6.01
2019-03-12T09:32:06.231Z,6.12
2019-03-12T09:34:06.165Z,6.28
2019-03-12T09:36:06.357Z,6.28
2019-03-12T09:38:06.292Z,6.23
2019-03-12T09:40:06.295Z,6.35
2019-03-12T09:42:06.236Z,6.65
2019-03-12T09:44:06.219Z,6.84
2019-03-12T09:46:06.332Z,6.88
2019-03-12T09:48:06.639Z,6.81
2019-03-12T09:50:06.462Z,6.78
2019-03-12T09:52:06.682Z,6.91
2019-03-12T09:54:06.124Z,7.16
2019-03-12T09:56:06.364Z,7.10
2019-03-12T09:58:06.402Z,7.17
2019-03-12T10:00:15.414Z,7.18
2019-03-12T10:02:06.297Z,7.24
2019-03-12T10:04:06.342Z,7.16
2019-03-12T10:06:06.396Z,7.12
2019-03-12T10:08:06.470Z,7.02
2019-03-12T10:10:06.475Z,7.11
2019-03-12T10:12:06.240Z,7.30
2019-03-12T10:14:06.379Z,7.48
2019-03-12T10:16:06.514Z,7.61
2019-03-12T10:18:06.429Z,7.30
2019-03-12T10:20:06.438Z,7.24
2019-03-12T10:22:06.236Z,7.20
2019-03-12T10:24:06.339Z,6.99
2019-03-12T10:26:06.515Z,6.96
2019-03-12T10:28:06.246Z,6.76
2019-03-12T10:30:06.483Z,6.70
2019-03-12T10:32:09.267Z,6.65
2019-03-12T10:34:06.180Z,6.90
2019-03-12T10:36:09.599Z,7.13
2019-03-12T10:38:06.635Z,7.27
2019-03-12T10:40:09.209Z,7.35
2019-03-12T10:42:06.352Z,7.65
2019-03-12T10:44:09.342Z,7.77
2019-03-12T10:46:06.201Z,7.93
2019-03-12T10:48:06.393Z,7.83
2019-03-12T10:50:06.504Z,7.88
2019-03-12T10:52:06.391Z,8.24
2019-03-12T10:54:06.645Z,8.41
2019-03-12T10:56:06.542Z,8.46
2019-03-12T10:58:06.443Z,8.44
2019-03-12T11:00:06.461Z,8.42
2019-03-12T11:02:06.144Z,8.28
2019-03-12T11:04:06.376Z,8.29
2019-03-12T11:06:06.288Z,8.35
2019-03-12T11:08:06.939Z,8.15
2019-03-12T11:10:06.439Z,8.13
2019-03-12T11:12:06.359Z,8.14
2019-03-12T11:14:06.439Z,8.34
2019-03-12T11:16:06.352Z,8.47
2019-03-12T11:18:06.458Z,8.42
2019-03-12T11:20:06.368Z,8.44
2019-03-12T11:22:06.390Z,8.34
2019-03-12T11:24:06.409Z,8.17
2019-03-12T11:26:06.504Z,8.26
2019-03-12T11:28:06.515Z,8.08
2019-03-12T11:30:06.528Z,7.97
2019-03-12T11:32:06.441Z,8.01
2019-03-12T11:34:06.337Z,7.96
2019-03-12T11:36:06.539Z,7.90
2019-03-12T11:38:06.666Z,7.80
2019-03-12T11:40:06.486Z,7.75
2019-03-12T11:42:06.599Z,7.63
2019-03-12T11:44:06.617Z,7.59
2019-03-12T11:46:06.731Z,7.71
2019-03-12T11:48:06.133Z,7.68
2019-03-12T11:50:06.521Z,7.74
2019-03-12T11:52:09.529Z,7.77
2019-03-12T11:54:06.469Z,7.69
2019-03-12T11:56:06.680Z,7.72
2019-03-12T11:58:06.616Z,7.68
2019-03-12T12:00:06.502Z,7.70
2019-03-12T12:02:06.404Z,7.85
2019-03-12T12:04:06.522Z,7.76
2019-03-12T12:06:06.322Z,7.72
2019-03-12T12:08:06.579Z,7.72
2019-03-12T12:10:06.574Z,7.92
2019-03-12T12:12:06.561Z,7.91
2019-03-12T12:14:06.577Z,7.87
2019-03-12T12:16:06.250Z,7.89
2019-03-12T12:18:06.533Z,7.72
2019-03-12T12:20:06.509Z,7.80
2019-03-12T12:22:06.627Z,7.79
2019-03-12T12:24:06.554Z,7.70
2019-03-12T12:26:06.298Z,7.60
2019-03-12T12:28:06.365Z,7.68
2019-03-12T12:30:06.570Z,7.68
2019-03-12T12:32:06.482Z,7.72
2019-03-12T12:34:06.495Z,7.73
2019-03-12T12:36:06.565Z,7.81
2019-03-12T12:38:06.625Z,7.89
2019-03-12T12:40:06.632Z,7.90
2019-03-12T12:42:06.418Z,8.02
2019-03-12T12:44:06.545Z,8.09
2019-03-12T12:46:06.569Z,8.09
2019-03-12T12:48:06.339Z,8.04
2019-03-12T12:50:06.538Z,8.21
2019-03-12T12:52:06.708Z,8.13
2019-03-12T12:54:09.495Z,8.03
2019-03-12T12:56:06.547Z,8.10
2019-03-12T12:58:06.599Z,8.27
2019-03-12T13:00:06.580Z,8.26
2019-03-12T13:02:06.856Z,8.19
2019-03-12T13:04:06.491Z,8.03
2019-03-12T13:06:06.813Z,8.11
2019-03-12T13:08:06.791Z,8.13
2019-03-12T13:10:06.710Z,8.08
2019-03-12T13:12:06.618Z,7.93
2019-03-12T13:14:06.621Z,7.92
2019-03-12T13:16:06.693Z,7.75
2019-03-12T13:18:06.402Z,7.87
2019-03-12T13:20:06.596Z,8.06
2019-03-12T13:22:06.666Z,8.10
2019-03-12T13:24:07.093Z,8.19
2019-03-12T13:26:06.595Z,8.28
2019-03-12T13:28:06.478Z,8.47
2019-03-12T13:30:06.817Z,8.59
2019-03-12T13:32:13.355Z,8.59
2019-03-12T13:34:06.833Z,8.70
2019-03-12T13:36:06.751Z,8.76
2019-03-12T13:38:06.687Z,8.80
2019-03-12T13:40:06.676Z,8.76
2019-03-12T13:42:06.795Z,8.71
2019-03-12T13:44:06.752Z,8.62
2019-03-12T13:46:06.709Z,8.72
2019-03-12T13:48:06.815Z,8.67
2019-03-12T13:50:06.469Z,8.48
2019-03-12T13:52:06.719Z,8.35
2019-03-12T13:54:09.604Z,8.27
2019-03-12T13:56:06.702Z,8.27
2019-03-12T13:58:06.787Z,8.30
2019-03-12T14:00:06.685Z,8.38
2019-03-12T14:02:06.694Z,8.48
2019-03-12T14:04:10.634Z,8.53
2019-03-12T14:06:07.037Z,8.64
2019-03-12T14:08:06.833Z,8.75
2019-03-12T14:10:06.759Z,8.85
2019-03-12T14:12:06.720Z,9.10
2019-03-12T14:14:06.971Z,9.02
2019-03-12T14:16:06.784Z,9.15
2019-03-12T14:18:06.791Z,8.93
2019-03-12T14:20:06.843Z,8.84
2019-03-12T14:22:06.911Z,8.75
2019-03-12T14:24:06.664Z,8.67
2019-03-12T14:26:06.646Z,8.69
2019-03-12T14:28:06.489Z,8.71
2019-03-12T14:30:06.790Z,8.88
2019-03-12T14:32:07.076Z,8.95
2019-03-12T14:34:06.599Z,9.07
2019-03-12T14:36:06.895Z,9.18
2019-03-12T14:38:06.608Z,9.19
2019-03-12T14:40:06.720Z,9.21
2019-03-12T14:42:06.722Z,9.16
2019-03-12T14:44:06.599Z,9.08
2019-03-12T14:46:06.845Z,9.02
2019-03-12T14:48:06.874Z,8.98
2019-03-12T14:50:06.764Z,8.91
2019-03-12T14:52:06.608Z,9.06
2019-03-12T14:54:06.802Z,9.28
2019-03-12T14:56:06.697Z,9.17
2019-03-12T14:58:07.022Z,9.26
2019-03-12T15:00:06.857Z,9.19
2019-03-12T15:02:06.447Z,9.03
2019-03-12T15:04:06.862Z,8.74
2019-03-12T15:06:06.859Z,8.84
2019-03-12T15:08:06.772Z,8.73
2019-03-12T15:10:06.885Z,8.80
2019-03-12T15:12:07.139Z,8.88
2019-03-12T15:14:06.815Z,8.80
2019-03-12T15:16:06.825Z,8.80
2019-03-12T15:18:06.657Z,8.69
2019-03-12T15:20:06.845Z,8.75
2019-03-12T15:22:06.957Z,8.79
2019-03-12T15:24:06.767Z,8.68
2019-03-12T15:26:06.709Z,8.55
2019-03-12T15:28:06.997Z,8.55
2019-03-12T15:30:07.001Z,8.52
2019-03-12T15:32:06.811Z,8.49
2019-03-12T15:34:06.931Z,8.38
2019-03-12T15:36:06.877Z,8.42
2019-03-12T15:38:06.850Z,8.38
2019-03-12T15:40:06.745Z,8.40
2019-03-12T15:42:06.874Z,8.41
2019-03-12T15:44:06.797Z,8.51
2019-03-12T15:46:06.703Z,8.42
2019-03-12T15:48:06.805Z,8.48
2019-03-12T15:50:09.825Z,8.43
2019-03-12T15:52:06.616Z,8.38
2019-03-12T15:54:06.614Z,8.39
2019-03-12T15:56:06.853Z,8.53
2019-03-12T15:58:06.856Z,8.29
2019-03-12T16:00:06.838Z,8.29
2019-03-12T16:02:06.890Z,8.29
2019-03-12T16:04:06.897Z,8.33
2019-03-12T16:06:06.644Z,8.21
2019-03-12T16:08:06.721Z,8.13
2019-03-12T16:10:06.825Z,8.13
2019-03-12T16:12:06.983Z,8.14
2019-03-12T16:14:06.723Z,8.16
2019-03-12T16:16:06.863Z,8.06
2019-03-12T16:18:07.179Z,7.97
2019-03-12T16:20:06.885Z,7.95
2019-03-12T16:22:06.797Z,8.03
2019-03-12T16:24:06.832Z,7.81
2019-03-12T16:26:06.727Z,7.96
2019-03-12T16:28:06.837Z,7.80
2019-03-12T16:30:06.894Z,7.75
2019-03-12T16:32:07.183Z,7.71
2019-03-12T16:34:06.793Z,7.67
2019-03-12T16:36:06.891Z,7.69
2019-03-12T16:38:06.955Z,7.72
2019-03-12T16:40:07.000Z,7.64
2019-03-12T16:42:06.563Z,7.67
2019-03-12T16:44:06.927Z,7.58
2019-03-12T16:46:06.835Z,7.59
2019-03-12T16:48:06.841Z,7.63
2019-03-12T16:50:06.650Z,7.49
2019-03-12T16:52:06.965Z,7.51
2019-03-12T16:54:06.977Z,7.51
2019-03-12T16:56:06.911Z,7.60
2019-03-12T16:58:06.882Z,7.46
2019-03-12T17:00:08.382Z,7.47
2019-03-12T17:02:07.028Z,7.44
2019-03-12T17:04:07.033Z,7.33
2019-03-12T17:06:06.783Z,7.40
2019-03-12T17:08:06.727Z,7.22
2019-03-12T17:10:07.180Z,7.39
2019-03-12T17:12:07.225Z,7.26
2019-03-12T17:14:07.100Z,7.28
2019-03-12T17:16:06.907Z,7.29
2019-03-12T17:18:06.815Z,7.13
2019-03-12T17:20:07.546Z,7.20
2019-03-12T17:22:07.145Z,7.31
2019-03-12T17:24:06.950Z,7.14
2019-03-12T17:26:06.822Z,7.35
2019-03-12T17:28:06.972Z,7.18
2019-03-12T17:30:06.888Z,7.21
2019-03-12T17:32:06.994Z,7.05
2019-03-12T17:34:06.768Z,7.04
2019-03-12T17:36:07.016Z,7.10
2019-03-12T17:38:06.922Z,7.13
2019-03-12T17:40:06.813Z,7.17
2019-03-12T17:42:06.960Z,7.22
2019-03-12T17:44:06.969Z,7.21
2019-03-12T17:46:07.385Z,7.12
2019-03-12T17:48:06.994Z,7.19
2019-03-12T17:50:06.972Z,7.18
2019-03-12T17:52:06.803Z,7.16
2019-03-12T17:54:06.929Z,7.21
2019-03-12T17:56:07.340Z,7.06
2019-03-12T17:58:06.951Z,7.16
2019-03-12T18:00:08.368Z,7.11
2019-03-12T18:02:07.064Z,7.06
2019-03-12T18:04:07.384Z,7.20
2019-03-12T18:06:06.990Z,7.23
2019-03-12T18:08:07.415Z,7.33
2019-03-12T18:10:07.426Z,7.31
2019-03-12T18:12:07.346Z,7.21
2019-03-12T18:14:07.459Z,7.23
2019-03-12T18:16:07.042Z,7.13
2019-03-12T18:18:07.484Z,7.17
2019-03-12T18:20:07.384Z,7.13
2019-03-12T18:22:06.987Z,7.24
2019-03-12T18:24:07.317Z,7.13
2019-03-12T18:26:07.368Z,7.15
2019-03-12T18:28:07.730Z,6.97
2019-03-12T18:30:07.345Z,7.12
2019-03-12T18:32:07.347Z,7.11
2019-03-12T18:34:07.458Z,7.14
2019-03-12T18:36:07.476Z,7.13
2019-03-12T18:38:07.479Z,7.00
2019-03-12T18:40:07.496Z,7.04
2019-03-12T18:42:07.507Z,7.19
2019-03-12T18:44:07.723Z,7.19
2019-03-12T18:46:07.534Z,7.10
2019-03-12T18:48:07.333Z,7.08
2019-03-12T18:50:07.418Z,7.19
2019-03-12T18:52:07.422Z,7.00
2019-03-12T18:54:07.266Z,7.04
2019-03-12T18:56:07.384Z,6.94
2019-03-12T18:58:07.477Z,7.02
2019-03-12T19:00:07.414Z,6.92
2019-03-12T19:02:07.623Z,6.97
2019-03-12T19:04:07.437Z,7.00
2019-03-12T19:06:10.065Z,6.93
2019-03-12T19:08:07.553Z,6.91
2019-03-12T19:10:08.106Z,7.06
2019-03-12T19:12:07.371Z,6.98
2019-03-12T19:14:07.590Z,6.99
2019-03-12T19:16:07.297Z,7.07
2019-03-12T19:18:07.611Z,7.15
2019-03-12T19:20:07.417Z,7.15
2019-03-12T19:22:07.431Z,7.09
2019-03-12T19:24:07.545Z,7.13
2019-03-12T19:26:07.299Z,7.14
2019-03-12T19:28:07.577Z,7.26
2019-03-12T19:30:07.448Z,7.20
2019-03-12T19:32:07.495Z,7.29
2019-03-12T19:34:07.101Z,7.24
2019-03-12T19:36:07.198Z,7.37
2019-03-12T19:38:07.127Z,7.40
2019-03-12T19:40:07.544Z,7.44
2019-03-12T19:42:07.552Z,7.34
2019-03-12T19:44:07.364Z,7.44
2019-03-12T19:46:07.784Z,7.28
2019-03-12T19:48:07.588Z,7.53
2019-03-12T19:50:07.482Z,7.42
2019-03-12T19:52:07.812Z,7.40
2019-03-12T19:54:07.411Z,7.27
2019-03-12T19:56:07.323Z,7.31
2019-03-12T19:58:07.482Z,7.43
2019-03-12T20:00:07.420Z,7.34
2019-03-12T20:02:15.972Z,7.37
2019-03-12T20:04:07.517Z,7.32
2019-03-12T20:06:07.516Z,7.37
2019-03-12T20:08:07.495Z,7.44
2019-03-12T20:10:07.509Z,7.38
2019-03-12T20:12:07.319Z,7.28
2019-03-12T20:14:07.537Z,7.32
2019-03-12T20:16:07.498Z,7.32
2019-03-12T20:18:07.554Z,7.46
2019-03-12T20:20:07.468Z,7.40
2019-03-12T20:22:07.481Z,7.50
2019-03-12T20:24:07.384Z,7.40
2019-03-12T20:26:07.011Z,7.50
2019-03-12T20:28:07.510Z,7.46
2019-03-12T20:30:07.429Z,7.52
2019-03-12T20:32:07.063Z,7.49
2019-03-12T20:34:07.466Z,7.57
2019-03-12T20:36:07.075Z,7.51
2019-03-12T20:38:07.272Z,7.59
2019-03-12T20:40:07.369Z,7.77
2019-03-12T20:42:07.484Z,7.73
2019-03-12T20:44:07.199Z,7.67
2019-03-12T20:46:09.127Z,7.82
2019-03-12T20:48:07.532Z,7.94
2019-03-12T20:50:07.126Z,7.83
2019-03-12T20:52:07.343Z,7.84
2019-03-12T20:54:07.159Z,7.85
2019-03-12T20:56:07.155Z,7.76
2019-03-12T20:58:07.489Z,7.77
2019-03-12T21:00:07.492Z,7.89
2019-03-12T21:02:07.719Z,7.80
2019-03-12T21:04:07.524Z,7.76
2019-03-12T21:06:07.533Z,7.77
2019-03-12T21:08:07.419Z,7.93
2019-03-12T21:10:07.668Z,7.86
2019-03-12T21:12:07.597Z,7.89
2019-03-12T21:14:07.463Z,7.93
2019-03-12T21:16:07.385Z,7.92
2019-03-12T21:18:07.390Z,7.97
2019-03-12T21:20:08.576Z,7.97
2019-03-12T21:22:07.220Z,7.91
2019-03-12T21:24:07.234Z,7.99
2019-03-12T21:26:07.468Z,7.93
2019-03-12T21:28:07.041Z,7.77
2019-03-12T21:30:07.662Z,7.82
2019-03-12T21:32:07.268Z,7.81
2019-03-12T21:34:07.184Z,7.84
2019-03-12T21:36:08.444Z,7.87
2019-03-12T21:38:08.229Z,7.84
2019-03-12T21:40:07.215Z,7.89
2019-03-12T21:42:07.249Z,7.79
2019-03-12T21:44:07.086Z,7.95
2019-03-12T21:46:07.038Z,7.98
2019-03-12T21:48:07.176Z,8.00
2019-03-12T21:50:07.373Z,8.13
2019-03-12T21:52:07.188Z,8.22
2019-03-12T21:54:07.185Z,8.19
2019-03-12T21:56:07.137Z,8.10
2019-03-12T21:58:07.217Z,8.11
2019-03-12T22:00:07.237Z,8.07
2019-03-12T22:02:07.237Z,8.02
2019-03-12T22:04:07.180Z,8.12
2019-03-12T22:06:07.257Z,8.01
2019-03-12T22:08:07.179Z,7.97
2019-03-12T22:10:07.194Z,8.00
2019-03-12T22:12:07.497Z,7.91
2019-03-12T22:14:07.138Z,7.94
2019-03-12T22:16:07.214Z,7.90
2019-03-12T22:18:07.157Z,8.00
2019-03-12T22:20:07.345Z,7.96
2019-03-12T22:22:07.252Z,7.97
2019-03-12T22:24:07.276Z,7.92
2019-03-12T22:26:06.967Z,7.83
2019-03-12T22:28:07.383Z,7.89
2019-03-12T22:30:07.299Z,7.86
2019-03-12T22:32:07.152Z,7.88
2019-03-12T22:34:07.202Z,7.86
2019-03-12T22:36:07.134Z,7.86
2019-03-12T22:38:07.347Z,7.81
2019-03-12T22:40:07.362Z,7.76
2019-03-12T22:42:07.224Z,7.69
2019-03-12T22:44:07.322Z,7.85
2019-03-12T22:46:09.924Z,7.77
2019-03-12T22:48:07.200Z,7.77
2019-03-12T22:50:06.966Z,7.75
2019-03-12T22:52:07.026Z,7.65
2019-03-12T22:54:07.165Z,7.68
2019-03-12T22:56:08.065Z,7.69
2019-03-12T22:58:07.265Z,7.67
2019-03-12T23:00:07.172Z,7.73
2019-03-12T23:02:07.403Z,7.73
2019-03-12T23:04:07.190Z,7.79
2019-03-12T23:06:07.086Z,7.79
2019-03-12T23:08:07.204Z,8.08
2019-03-12T23:10:07.330Z,7.99
2019-03-12T23:12:07.436Z,8.03
2019-03-12T23:14:07.251Z,8.06
2019-03-12T23:16:07.671Z,8.00
2019-03-12T23:18:07.476Z,8.15
2019-03-12T23:20:07.282Z,8.14
2019-03-12T23:22:07.213Z,8.16
2019-03-12T23:24:07.309Z,8.11
2019-03-12T23:26:07.389Z,8.03
2019-03-12T23:28:07.223Z,7.95
2019-03-12T23:30:07.212Z,7.97
2019-03-12T23:32:07.554Z,7.76
2019-03-12T23:34:07.464Z,7.57
2019-03-12T23:36:07.268Z,7.30
2019-03-12T23:38:07.209Z,6.82
2019-03-12T23:40:07.306Z,6.48
2019-03-12T23:42:07.125Z,6.11
2019-03-12T23:44:07.422Z,5.81
2019-03-12T23:46:07.669Z,5.60
2019-03-12T23:48:07.336Z,5.37
2019-03-12T23:50:07.183Z,5.33
2019-03-12T23:52:07.229Z,5.14
2019-03-12T23:54:07.276Z,4.94
2019-03-12T23:56:07.288Z,4.92
2019-03-12T23:58:07.205Z,4.96
